sensor_id;sensor_type;location;lat;lon;timestamp;P1;durP1;ratioP1;P2;durP2;ratioP2
18407;SDS011;9330;52.210;21.174;2022-10-29T00:02:10;12.05;;;9.90;;
18407;SDS011;9330;52.210;21.174;2022-10-29T00:04:37;12.45;;;10.38;;
18407;SDS011;9330;52.210;21.174;2022-10-29T00:07:04;15.45;;;10.57;;
18407;SDS011;9330;52.210;21.174;2022-10-29T00:09:31;12.38;;;9.63;;
18407;SDS011;9330;52.210;21.174;2022-10-29T00:12:01;14.10;;;10.18;;
18407;SDS011;9330;52.210;21.174;2022-10-29T00:14:27;14.10;;;10.95;;
18407;SDS011;9330;52.210;21.174;2022-10-29T00:16:54;13.98;;;9.95;;
18407;SDS011;9330;52.210;21.174;2022-10-29T00:19:21;13.45;;;9.90;;
18407;SDS011;9330;52.210;21.174;2022-10-29T00:21:48;14.15;;;10.88;;
18407;SDS011;9330;52.210;21.174;2022-10-29T00:24:15;14.07;;;10.05;;
18407;SDS011;9330;52.210;21.174;2022-10-29T00:26:42;13.35;;;9.90;;
18407;SDS011;9330;52.210;21.174;2022-10-29T00:29:11;14.55;;;10.57;;
18407;SDS011;9330;52.210;21.174;2022-10-29T00:31:38;14.25;;;9.55;;
18407;SDS011;9330;52.210;21.174;2022-10-29T00:34:05;13.55;;;9.48;;
18407;SDS011;9330;52.210;21.174;2022-10-29T00:36:31;13.00;;;9.57;;
18407;SDS011;9330;52.210;21.174;2022-10-29T00:38:58;10.35;;;9.20;;
18407;SDS011;9330;52.210;21.174;2022-10-29T00:41:27;14.75;;;10.68;;
18407;SDS011;9330;52.210;21.174;2022-10-29T00:47:01;11.68;;;9.40;;
18407;SDS011;9330;52.210;21.174;2022-10-29T00:49:30;12.25;;;9.68;;
18407;SDS011;9330;52.210;21.174;2022-10-29T00:51:59;13.30;;;9.85;;
18407;SDS011;9330;52.210;21.174;2022-10-29T00:54:28;11.32;;;8.70;;
18407;SDS011;9330;52.210;21.174;2022-10-29T00:56:58;12.20;;;9.70;;
18407;SDS011;9330;52.210;21.174;2022-10-29T00:59:30;12.73;;;9.18;;
18407;SDS011;9330;52.210;21.174;2022-10-29T01:01:57;11.50;;;9.07;;
18407;SDS011;9330;52.210;21.174;2022-10-29T01:04:24;10.93;;;8.50;;
18407;SDS011;9330;52.210;21.174;2022-10-29T01:06:52;12.32;;;9.07;;
18407;SDS011;9330;52.210;21.174;2022-10-29T01:15:35;13.48;;;10.02;;
18407;SDS011;9330;52.210;21.174;2022-10-29T01:18:10;15.45;;;10.32;;
18407;SDS011;9330;52.210;21.174;2022-10-29T01:30:15;12.73;;;9.90;;
18407;SDS011;9330;52.210;21.174;2022-10-29T01:32:54;12.35;;;10.00;;
18407;SDS011;9330;52.210;21.174;2022-10-29T01:35:39;12.98;;;9.25;;
18407;SDS011;9330;52.210;21.174;2022-10-29T01:38:18;12.20;;;9.50;;
18407;SDS011;9330;52.210;21.174;2022-10-29T01:40:56;13.23;;;9.18;;
18407;SDS011;9330;52.210;21.174;2022-10-29T01:43:30;10.80;;;9.32;;
18407;SDS011;9330;52.210;21.174;2022-10-29T01:46:03;13.60;;;10.02;;
18407;SDS011;9330;52.210;21.174;2022-10-29T01:48:36;12.90;;;9.63;;
18407;SDS011;9330;52.210;21.174;2022-10-29T01:51:08;12.23;;;9.68;;
18407;SDS011;9330;52.210;21.174;2022-10-29T01:53:40;11.50;;;8.60;;
18407;SDS011;9330;52.210;21.174;2022-10-29T01:56:07;13.23;;;9.13;;
18407;SDS011;9330;52.210;21.174;2022-10-29T01:58:34;12.15;;;9.13;;
18407;SDS011;9330;52.210;21.174;2022-10-29T02:01:04;11.63;;;9.25;;
18407;SDS011;9330;52.210;21.174;2022-10-29T02:03:39;12.27;;;9.27;;
18407;SDS011;9330;52.210;21.174;2022-10-29T02:06:16;14.60;;;9.15;;
18407;SDS011;9330;52.210;21.174;2022-10-29T02:08:54;12.43;;;9.30;;
18407;SDS011;9330;52.210;21.174;2022-10-29T02:11:30;11.85;;;8.48;;
18407;SDS011;9330;52.210;21.174;2022-10-29T02:14:04;11.82;;;8.80;;
18407;SDS011;9330;52.210;21.174;2022-10-29T02:16:35;11.75;;;8.77;;
18407;SDS011;9330;52.210;21.174;2022-10-29T02:19:05;12.80;;;8.60;;
18407;SDS011;9330;52.210;21.174;2022-10-29T02:21:32;11.20;;;9.05;;
18407;SDS011;9330;52.210;21.174;2022-10-29T02:23:59;10.57;;;8.63;;
18407;SDS011;9330;52.210;21.174;2022-10-29T02:26:25;14.18;;;8.85;;
18407;SDS011;9330;52.210;21.174;2022-10-29T02:28:52;12.02;;;8.73;;
18407;SDS011;9330;52.210;21.174;2022-10-29T02:31:19;12.65;;;9.10;;
18407;SDS011;9330;52.210;21.174;2022-10-29T02:33:46;9.38;;;8.18;;
18407;SDS011;9330;52.210;21.174;2022-10-29T02:36:14;11.88;;;8.15;;
18407;SDS011;9330;52.210;21.174;2022-10-29T02:38:41;10.18;;;8.07;;
18407;SDS011;9330;52.210;21.174;2022-10-29T02:41:08;11.40;;;8.35;;
18407;SDS011;9330;52.210;21.174;2022-10-29T02:43:35;10.98;;;8.45;;
18407;SDS011;9330;52.210;21.174;2022-10-29T02:46:09;10.55;;;8.57;;
18407;SDS011;9330;52.210;21.174;2022-10-29T02:48:39;10.77;;;8.68;;
18407;SDS011;9330;52.210;21.174;2022-10-29T02:51:06;11.45;;;9.02;;
18407;SDS011;9330;52.210;21.174;2022-10-29T02:53:34;10.88;;;8.07;;
18407;SDS011;9330;52.210;21.174;2022-10-29T02:56:01;12.43;;;8.40;;
18407;SDS011;9330;52.210;21.174;2022-10-29T02:58:28;13.20;;;9.05;;
18407;SDS011;9330;52.210;21.174;2022-10-29T03:00:55;11.98;;;9.25;;
18407;SDS011;9330;52.210;21.174;2022-10-29T03:03:22;12.25;;;9.25;;
18407;SDS011;9330;52.210;21.174;2022-10-29T03:05:49;13.48;;;9.25;;
18407;SDS011;9330;52.210;21.174;2022-10-29T03:08:17;11.77;;;9.45;;
18407;SDS011;9330;52.210;21.174;2022-10-29T03:10:45;13.80;;;9.65;;
18407;SDS011;9330;52.210;21.174;2022-10-29T03:13:12;12.15;;;9.13;;
18407;SDS011;9330;52.210;21.174;2022-10-29T03:15:41;12.85;;;9.18;;
18407;SDS011;9330;52.210;21.174;2022-10-29T03:18:09;11.30;;;8.77;;
18407;SDS011;9330;52.210;21.174;2022-10-29T03:20:36;13.10;;;9.68;;
18407;SDS011;9330;52.210;21.174;2022-10-29T03:23:03;11.25;;;9.30;;
18407;SDS011;9330;52.210;21.174;2022-10-29T03:25:30;11.77;;;8.98;;
18407;SDS011;9330;52.210;21.174;2022-10-29T03:27:58;10.75;;;9.13;;
18407;SDS011;9330;52.210;21.174;2022-10-29T03:30:25;11.32;;;8.82;;
18407;SDS011;9330;52.210;21.174;2022-10-29T03:32:52;11.98;;;8.70;;
18407;SDS011;9330;52.210;21.174;2022-10-29T03:35:19;13.70;;;9.25;;
18407;SDS011;9330;52.210;21.174;2022-10-29T03:37:47;10.68;;;8.30;;
18407;SDS011;9330;52.210;21.174;2022-10-29T03:40:15;10.68;;;9.00;;
18407;SDS011;9330;52.210;21.174;2022-10-29T03:42:43;12.82;;;9.10;;
18407;SDS011;9330;52.210;21.174;2022-10-29T03:45:11;10.85;;;8.98;;
18407;SDS011;9330;52.210;21.174;2022-10-29T03:47:38;15.38;;;8.80;;
18407;SDS011;9330;52.210;21.174;2022-10-29T03:50:05;14.10;;;9.52;;
18407;SDS011;9330;52.210;21.174;2022-10-29T03:52:33;11.68;;;9.15;;
18407;SDS011;9330;52.210;21.174;2022-10-29T03:55:00;13.90;;;9.57;;
18407;SDS011;9330;52.210;21.174;2022-10-29T03:57:27;12.27;;;9.00;;
18407;SDS011;9330;52.210;21.174;2022-10-29T03:59:54;10.02;;;7.82;;
18407;SDS011;9330;52.210;21.174;2022-10-29T04:02:23;11.77;;;8.55;;
18407;SDS011;9330;52.210;21.174;2022-10-29T04:04:50;14.32;;;8.43;;
18407;SDS011;9330;52.210;21.174;2022-10-29T04:07:17;12.23;;;8.85;;
18407;SDS011;9330;52.210;21.174;2022-10-29T04:09:44;12.65;;;8.73;;
18407;SDS011;9330;52.210;21.174;2022-10-29T04:12:11;11.32;;;8.82;;
18407;SDS011;9330;52.210;21.174;2022-10-29T04:14:38;11.45;;;9.05;;
18407;SDS011;9330;52.210;21.174;2022-10-29T04:17:06;12.25;;;8.63;;
18407;SDS011;9330;52.210;21.174;2022-10-29T04:19:35;9.88;;;8.18;;
18407;SDS011;9330;52.210;21.174;2022-10-29T04:22:01;13.13;;;8.70;;
18407;SDS011;9330;52.210;21.174;2022-10-29T04:24:28;12.43;;;8.48;;
18407;SDS011;9330;52.210;21.174;2022-10-29T04:26:55;12.88;;;8.93;;
18407;SDS011;9330;52.210;21.174;2022-10-29T04:29:22;11.07;;;8.13;;
18407;SDS011;9330;52.210;21.174;2022-10-29T04:31:49;13.77;;;8.68;;
18407;SDS011;9330;52.210;21.174;2022-10-29T04:34:17;12.60;;;9.15;;
18407;SDS011;9330;52.210;21.174;2022-10-29T04:36:45;11.23;;;8.52;;
18407;SDS011;9330;52.210;21.174;2022-10-29T04:39:12;10.43;;;8.38;;
18407;SDS011;9330;52.210;21.174;2022-10-29T04:41:39;11.73;;;8.00;;
18407;SDS011;9330;52.210;21.174;2022-10-29T04:44:05;10.68;;;8.43;;
18407;SDS011;9330;52.210;21.174;2022-10-29T04:46:32;11.38;;;8.40;;
18407;SDS011;9330;52.210;21.174;2022-10-29T04:48:59;11.63;;;8.60;;
18407;SDS011;9330;52.210;21.174;2022-10-29T04:51:26;12.10;;;8.32;;
18407;SDS011;9330;52.210;21.174;2022-10-29T04:53:54;11.95;;;8.70;;
18407;SDS011;9330;52.210;21.174;2022-10-29T04:56:21;10.43;;;8.65;;
18407;SDS011;9330;52.210;21.174;2022-10-29T04:58:49;12.30;;;8.35;;
18407;SDS011;9330;52.210;21.174;2022-10-29T05:01:17;11.93;;;8.73;;
18407;SDS011;9330;52.210;21.174;2022-10-29T05:03:44;10.15;;;8.38;;
18407;SDS011;9330;52.210;21.174;2022-10-29T05:06:11;12.38;;;9.13;;
18407;SDS011;9330;52.210;21.174;2022-10-29T05:08:38;16.00;;;10.23;;
18407;SDS011;9330;52.210;21.174;2022-10-29T05:11:06;11.90;;;9.07;;
18407;SDS011;9330;52.210;21.174;2022-10-29T05:13:34;12.02;;;8.15;;
18407;SDS011;9330;52.210;21.174;2022-10-29T05:16:01;13.38;;;8.73;;
18407;SDS011;9330;52.210;21.174;2022-10-29T05:18:28;11.35;;;8.90;;
18407;SDS011;9330;52.210;21.174;2022-10-29T05:20:55;12.85;;;8.80;;
18407;SDS011;9330;52.210;21.174;2022-10-29T05:23:23;10.88;;;8.77;;
18407;SDS011;9330;52.210;21.174;2022-10-29T05:25:50;10.30;;;8.30;;
18407;SDS011;9330;52.210;21.174;2022-10-29T05:28:19;12.48;;;8.43;;
18407;SDS011;9330;52.210;21.174;2022-10-29T05:30:46;11.23;;;8.23;;
18407;SDS011;9330;52.210;21.174;2022-10-29T05:33:15;13.18;;;9.20;;
18407;SDS011;9330;52.210;21.174;2022-10-29T05:35:43;12.45;;;8.70;;
18407;SDS011;9330;52.210;21.174;2022-10-29T05:38:11;11.15;;;8.15;;
18407;SDS011;9330;52.210;21.174;2022-10-29T05:40:38;9.68;;;8.60;;
18407;SDS011;9330;52.210;21.174;2022-10-29T05:43:06;12.02;;;8.77;;
18407;SDS011;9330;52.210;21.174;2022-10-29T05:45:35;10.27;;;8.30;;
18407;SDS011;9330;52.210;21.174;2022-10-29T05:48:02;12.95;;;8.23;;
18407;SDS011;9330;52.210;21.174;2022-10-29T05:50:30;11.35;;;8.40;;
18407;SDS011;9330;52.210;21.174;2022-10-29T05:52:58;10.38;;;8.85;;
18407;SDS011;9330;52.210;21.174;2022-10-29T05:55:26;10.77;;;8.30;;
18407;SDS011;9330;52.210;21.174;2022-10-29T05:57:54;10.85;;;8.35;;
18407;SDS011;9330;52.210;21.174;2022-10-29T06:00:22;12.32;;;8.68;;
18407;SDS011;9330;52.210;21.174;2022-10-29T06:02:50;11.38;;;9.15;;
18407;SDS011;9330;52.210;21.174;2022-10-29T06:05:17;14.30;;;8.98;;
18407;SDS011;9330;52.210;21.174;2022-10-29T06:07:44;10.80;;;8.82;;
18407;SDS011;9330;52.210;21.174;2022-10-29T06:10:11;11.25;;;8.80;;
18407;SDS011;9330;52.210;21.174;2022-10-29T06:12:38;10.68;;;7.93;;
18407;SDS011;9330;52.210;21.174;2022-10-29T06:15:06;11.10;;;7.78;;
18407;SDS011;9330;52.210;21.174;2022-10-29T06:17:33;12.25;;;8.30;;
18407;SDS011;9330;52.210;21.174;2022-10-29T06:20:07;13.07;;;8.63;;
18407;SDS011;9330;52.210;21.174;2022-10-29T06:22:35;15.00;;;8.57;;
18407;SDS011;9330;52.210;21.174;2022-10-29T06:25:02;9.80;;;8.25;;
18407;SDS011;9330;52.210;21.174;2022-10-29T06:27:29;9.82;;;7.85;;
18407;SDS011;9330;52.210;21.174;2022-10-29T06:29:56;12.95;;;7.93;;
18407;SDS011;9330;52.210;21.174;2022-10-29T06:32:23;13.02;;;8.02;;
18407;SDS011;9330;52.210;21.174;2022-10-29T06:34:50;11.02;;;8.35;;
18407;SDS011;9330;52.210;21.174;2022-10-29T06:37:18;15.05;;;8.60;;
18407;SDS011;9330;52.210;21.174;2022-10-29T06:39:45;17.65;;;9.05;;
18407;SDS011;9330;52.210;21.174;2022-10-29T06:42:11;13.52;;;8.60;;
18407;SDS011;9330;52.210;21.174;2022-10-29T06:44:38;11.50;;;7.72;;
18407;SDS011;9330;52.210;21.174;2022-10-29T06:47:05;13.40;;;7.53;;
18407;SDS011;9330;52.210;21.174;2022-10-29T06:49:32;11.07;;;7.50;;
18407;SDS011;9330;52.210;21.174;2022-10-29T06:51:59;11.43;;;8.57;;
18407;SDS011;9330;52.210;21.174;2022-10-29T06:54:27;13.05;;;8.07;;
18407;SDS011;9330;52.210;21.174;2022-10-29T06:56:54;9.30;;;7.30;;
18407;SDS011;9330;52.210;21.174;2022-10-29T06:59:21;14.60;;;8.20;;
18407;SDS011;9330;52.210;21.174;2022-10-29T07:01:48;9.82;;;7.68;;
18407;SDS011;9330;52.210;21.174;2022-10-29T07:04:15;13.93;;;8.38;;
18407;SDS011;9330;52.210;21.174;2022-10-29T07:06:44;10.80;;;7.88;;
18407;SDS011;9330;52.210;21.174;2022-10-29T07:09:11;11.27;;;8.32;;
18407;SDS011;9330;52.210;21.174;2022-10-29T07:11:40;12.85;;;7.68;;
18407;SDS011;9330;52.210;21.174;2022-10-29T07:14:07;11.88;;;7.55;;
18407;SDS011;9330;52.210;21.174;2022-10-29T07:16:34;11.13;;;7.80;;
18407;SDS011;9330;52.210;21.174;2022-10-29T07:19:02;12.65;;;8.00;;
18407;SDS011;9330;52.210;21.174;2022-10-29T07:21:29;8.45;;;6.72;;
18407;SDS011;9330;52.210;21.174;2022-10-29T07:23:56;11.45;;;7.10;;
18407;SDS011;9330;52.210;21.174;2022-10-29T07:26:23;11.38;;;7.25;;
18407;SDS011;9330;52.210;21.174;2022-10-29T07:28:51;14.55;;;6.45;;
18407;SDS011;9330;52.210;21.174;2022-10-29T07:31:21;11.70;;;6.82;;
18407;SDS011;9330;52.210;21.174;2022-10-29T07:33:47;13.50;;;7.35;;
18407;SDS011;9330;52.210;21.174;2022-10-29T07:36:14;11.00;;;6.85;;
18407;SDS011;9330;52.210;21.174;2022-10-29T07:38:41;12.52;;;6.85;;
18407;SDS011;9330;52.210;21.174;2022-10-29T07:41:08;10.40;;;6.82;;
18407;SDS011;9330;52.210;21.174;2022-10-29T07:43:35;10.23;;;7.18;;
18407;SDS011;9330;52.210;21.174;2022-10-29T07:46:03;8.55;;;6.07;;
18407;SDS011;9330;52.210;21.174;2022-10-29T07:48:31;13.45;;;6.40;;
18407;SDS011;9330;52.210;21.174;2022-10-29T07:50:58;9.20;;;6.47;;
18407;SDS011;9330;52.210;21.174;2022-10-29T07:53:25;8.73;;;5.15;;
18407;SDS011;9330;52.210;21.174;2022-10-29T07:55:55;8.45;;;5.45;;
18407;SDS011;9330;52.210;21.174;2022-10-29T07:58:22;10.52;;;5.40;;
18407;SDS011;9330;52.210;21.174;2022-10-29T08:00:50;8.10;;;5.10;;
18407;SDS011;9330;52.210;21.174;2022-10-29T08:03:18;11.20;;;5.30;;
18407;SDS011;9330;52.210;21.174;2022-10-29T08:05:45;10.25;;;5.28;;
18407;SDS011;9330;52.210;21.174;2022-10-29T08:08:14;10.68;;;6.00;;
18407;SDS011;9330;52.210;21.174;2022-10-29T08:10:42;9.68;;;5.30;;
18407;SDS011;9330;52.210;21.174;2022-10-29T08:13:09;9.48;;;5.10;;
18407;SDS011;9330;52.210;21.174;2022-10-29T08:15:36;11.07;;;5.53;;
18407;SDS011;9330;52.210;21.174;2022-10-29T08:18:08;10.02;;;5.88;;
18407;SDS011;9330;52.210;21.174;2022-10-29T08:20:41;8.65;;;5.15;;
18407;SDS011;9330;52.210;21.174;2022-10-29T08:23:08;14.43;;;5.70;;
18407;SDS011;9330;52.210;21.174;2022-10-29T08:25:35;8.85;;;5.65;;
18407;SDS011;9330;52.210;21.174;2022-10-29T08:28:07;11.30;;;5.50;;
18407;SDS011;9330;52.210;21.174;2022-10-29T08:30:35;8.15;;;5.32;;
18407;SDS011;9330;52.210;21.174;2022-10-29T08:33:03;10.15;;;5.45;;
18407;SDS011;9330;52.210;21.174;2022-10-29T08:35:30;11.93;;;5.78;;
18407;SDS011;9330;52.210;21.174;2022-10-29T08:37:59;9.30;;;5.70;;
18407;SDS011;9330;52.210;21.174;2022-10-29T08:40:27;9.20;;;5.55;;
18407;SDS011;9330;52.210;21.174;2022-10-29T08:43:02;9.90;;;6.05;;
18407;SDS011;9330;52.210;21.174;2022-10-29T08:45:54;10.13;;;5.70;;
18407;SDS011;9330;52.210;21.174;2022-10-29T08:51:09;14.75;;;6.65;;
18407;SDS011;9330;52.210;21.174;2022-10-29T08:53:45;11.85;;;6.75;;
18407;SDS011;9330;52.210;21.174;2022-10-29T08:56:16;13.88;;;5.97;;
18407;SDS011;9330;52.210;21.174;2022-10-29T08:58:49;9.48;;;6.07;;
18407;SDS011;9330;52.210;21.174;2022-10-29T09:01:21;8.73;;;5.65;;
18407;SDS011;9330;52.210;21.174;2022-10-29T09:03:48;8.02;;;5.95;;
18407;SDS011;9330;52.210;21.174;2022-10-29T09:06:17;8.85;;;5.82;;
18407;SDS011;9330;52.210;21.174;2022-10-29T09:08:56;8.40;;;5.75;;
18407;SDS011;9330;52.210;21.174;2022-10-29T09:11:38;7.53;;;5.95;;
18407;SDS011;9330;52.210;21.174;2022-10-29T09:14:26;10.60;;;5.63;;
18407;SDS011;9330;52.210;21.174;2022-10-29T09:17:06;9.23;;;5.97;;
18407;SDS011;9330;52.210;21.174;2022-10-29T09:19:48;16.25;;;7.05;;
18407;SDS011;9330;52.210;21.174;2022-10-29T09:22:26;12.68;;;6.63;;
18407;SDS011;9330;52.210;21.174;2022-10-29T09:25:06;13.50;;;6.43;;
18407;SDS011;9330;52.210;21.174;2022-10-29T09:27:43;11.30;;;6.10;;
18407;SDS011;9330;52.210;21.174;2022-10-29T09:30:20;12.73;;;6.53;;
18407;SDS011;9330;52.210;21.174;2022-10-29T09:32:49;11.00;;;6.90;;
18407;SDS011;9330;52.210;21.174;2022-10-29T09:35:34;10.70;;;6.65;;
18407;SDS011;9330;52.210;21.174;2022-10-29T09:38:05;10.77;;;6.63;;
18407;SDS011;9330;52.210;21.174;2022-10-29T09:40:39;14.40;;;7.55;;
18407;SDS011;9330;52.210;21.174;2022-10-29T09:43:11;11.30;;;7.13;;
18407;SDS011;9330;52.210;21.174;2022-10-29T09:45:45;13.52;;;7.32;;
18407;SDS011;9330;52.210;21.174;2022-10-29T09:48:19;11.23;;;7.35;;
18407;SDS011;9330;52.210;21.174;2022-10-29T09:50:52;10.38;;;7.28;;
18407;SDS011;9330;52.210;21.174;2022-10-29T09:53:26;13.00;;;7.57;;
18407;SDS011;9330;52.210;21.174;2022-10-29T09:55:54;16.08;;;8.60;;
18407;SDS011;9330;52.210;21.174;2022-10-29T09:58:22;14.38;;;8.48;;
18407;SDS011;9330;52.210;21.174;2022-10-29T10:00:50;12.48;;;7.85;;
18407;SDS011;9330;52.210;21.174;2022-10-29T10:03:19;10.77;;;7.53;;
18407;SDS011;9330;52.210;21.174;2022-10-29T10:05:54;14.38;;;8.40;;
18407;SDS011;9330;52.210;21.174;2022-10-29T10:08:23;11.45;;;8.25;;
18407;SDS011;9330;52.210;21.174;2022-10-29T10:10:51;13.82;;;7.95;;
18407;SDS011;9330;52.210;21.174;2022-10-29T10:13:25;18.42;;;9.25;;
18407;SDS011;9330;52.210;21.174;2022-10-29T10:15:54;17.38;;;9.60;;
18407;SDS011;9330;52.210;21.174;2022-10-29T10:18:23;15.82;;;9.23;;
18407;SDS011;9330;52.210;21.174;2022-10-29T10:21:01;12.25;;;8.73;;
18407;SDS011;9330;52.210;21.174;2022-10-29T10:23:43;19.77;;;9.88;;
18407;SDS011;9330;52.210;21.174;2022-10-29T10:29:02;21.50;;;11.20;;
18407;SDS011;9330;52.210;21.174;2022-10-29T10:31:40;18.60;;;10.43;;
18407;SDS011;9330;52.210;21.174;2022-10-29T10:34:13;15.90;;;12.00;;
18407;SDS011;9330;52.210;21.174;2022-10-29T10:36:42;24.02;;;11.60;;
18407;SDS011;9330;52.210;21.174;2022-10-29T10:39:16;17.30;;;11.85;;
18407;SDS011;9330;52.210;21.174;2022-10-29T10:41:50;19.75;;;12.77;;
18407;SDS011;9330;52.210;21.174;2022-10-29T10:44:17;18.90;;;10.93;;
18407;SDS011;9330;52.210;21.174;2022-10-29T10:46:46;21.02;;;12.98;;
18407;SDS011;9330;52.210;21.174;2022-10-29T10:49:15;19.05;;;12.45;;
18407;SDS011;9330;52.210;21.174;2022-10-29T10:51:44;17.70;;;12.45;;
18407;SDS011;9330;52.210;21.174;2022-10-29T10:57:18;19.95;;;12.82;;
18407;SDS011;9330;52.210;21.174;2022-10-29T10:59:49;19.65;;;11.93;;
18407;SDS011;9330;52.210;21.174;2022-10-29T11:02:26;21.15;;;12.52;;
18407;SDS011;9330;52.210;21.174;2022-10-29T11:04:59;19.90;;;12.52;;
18407;SDS011;9330;52.210;21.174;2022-10-29T11:07:34;17.33;;;12.50;;
18407;SDS011;9330;52.210;21.174;2022-10-29T11:10:09;21.52;;;12.85;;
18407;SDS011;9330;52.210;21.174;2022-10-29T11:12:40;17.77;;;11.85;;
18407;SDS011;9330;52.210;21.174;2022-10-29T11:15:11;16.23;;;11.65;;
18407;SDS011;9330;52.210;21.174;2022-10-29T11:17:45;17.23;;;11.65;;
18407;SDS011;9330;52.210;21.174;2022-10-29T11:20:17;15.45;;;10.75;;
18407;SDS011;9330;52.210;21.174;2022-10-29T11:22:49;17.55;;;11.77;;
18407;SDS011;9330;52.210;21.174;2022-10-29T11:25:23;17.95;;;10.75;;
18407;SDS011;9330;52.210;21.174;2022-10-29T11:28:00;18.10;;;11.45;;
18407;SDS011;9330;52.210;21.174;2022-10-29T11:30:35;18.50;;;12.00;;
18407;SDS011;9330;52.210;21.174;2022-10-29T11:33:12;19.75;;;11.75;;
18407;SDS011;9330;52.210;21.174;2022-10-29T11:35:48;16.55;;;11.45;;
18407;SDS011;9330;52.210;21.174;2022-10-29T11:38:20;19.75;;;11.55;;
18407;SDS011;9330;52.210;21.174;2022-10-29T11:40:52;16.20;;;11.38;;
18407;SDS011;9330;52.210;21.174;2022-10-29T11:43:30;14.27;;;11.02;;
18407;SDS011;9330;52.210;21.174;2022-10-29T11:45:59;20.05;;;10.85;;
18407;SDS011;9330;52.210;21.174;2022-10-29T11:48:37;14.77;;;9.75;;
18407;SDS011;9330;52.210;21.174;2022-10-29T11:51:18;15.63;;;11.05;;
18407;SDS011;9330;52.210;21.174;2022-10-29T11:53:54;17.60;;;10.52;;
18407;SDS011;9330;52.210;21.174;2022-10-29T11:56:30;14.27;;;9.70;;
18407;SDS011;9330;52.210;21.174;2022-10-29T11:59:20;15.90;;;10.35;;
18407;SDS011;9330;52.210;21.174;2022-10-29T12:01:56;19.50;;;10.93;;
18407;SDS011;9330;52.210;21.174;2022-10-29T12:04:31;18.30;;;11.25;;
18407;SDS011;9330;52.210;21.174;2022-10-29T12:07:14;15.60;;;9.93;;
18407;SDS011;9330;52.210;21.174;2022-10-29T12:12:57;15.65;;;9.88;;
18407;SDS011;9330;52.210;21.174;2022-10-29T12:15:37;19.65;;;10.02;;
18407;SDS011;9330;52.210;21.174;2022-10-29T12:18:12;16.48;;;9.88;;
18407;SDS011;9330;52.210;21.174;2022-10-29T12:20:49;15.98;;;9.30;;
18407;SDS011;9330;52.210;21.174;2022-10-29T12:23:26;12.80;;;9.60;;
18407;SDS011;9330;52.210;21.174;2022-10-29T12:26:02;18.42;;;9.13;;
18407;SDS011;9330;52.210;21.174;2022-10-29T12:28:36;15.88;;;9.00;;
18407;SDS011;9330;52.210;21.174;2022-10-29T12:31:15;14.43;;;8.32;;
18407;SDS011;9330;52.210;21.174;2022-10-29T12:33:50;12.43;;;8.45;;
18407;SDS011;9330;52.210;21.174;2022-10-29T12:36:24;15.25;;;8.55;;
18407;SDS011;9330;52.210;21.174;2022-10-29T12:38:58;13.85;;;8.88;;
18407;SDS011;9330;52.210;21.174;2022-10-29T12:41:29;17.30;;;9.38;;
18407;SDS011;9330;52.210;21.174;2022-10-29T12:44:02;12.30;;;8.43;;
18407;SDS011;9330;52.210;21.174;2022-10-29T12:46:38;11.30;;;8.38;;
18407;SDS011;9330;52.210;21.174;2022-10-29T12:49:09;16.08;;;9.40;;
18407;SDS011;9330;52.210;21.174;2022-10-29T12:51:47;17.33;;;9.40;;
18407;SDS011;9330;52.210;21.174;2022-10-29T12:54:34;15.23;;;9.43;;
18407;SDS011;9330;52.210;21.174;2022-10-29T12:57:04;13.90;;;8.80;;
18407;SDS011;9330;52.210;21.174;2022-10-29T12:59:43;16.20;;;9.02;;
18407;SDS011;9330;52.210;21.174;2022-10-29T13:02:23;14.40;;;8.57;;
18407;SDS011;9330;52.210;21.174;2022-10-29T13:08:08;14.50;;;8.30;;
18407;SDS011;9330;52.210;21.174;2022-10-29T13:10:54;11.15;;;7.63;;
18407;SDS011;9330;52.210;21.174;2022-10-29T13:13:24;11.60;;;7.55;;
18407;SDS011;9330;52.210;21.174;2022-10-29T13:16:12;13.32;;;7.78;;
18407;SDS011;9330;52.210;21.174;2022-10-29T13:18:50;14.55;;;7.75;;
18407;SDS011;9330;52.210;21.174;2022-10-29T13:24:24;13.43;;;7.55;;
18407;SDS011;9330;52.210;21.174;2022-10-29T13:26:53;10.68;;;7.53;;
18407;SDS011;9330;52.210;21.174;2022-10-29T13:29:40;12.65;;;8.18;;
18407;SDS011;9330;52.210;21.174;2022-10-29T13:35:02;12.02;;;6.80;;
18407;SDS011;9330;52.210;21.174;2022-10-29T13:37:52;14.38;;;6.72;;
18407;SDS011;9330;52.210;21.174;2022-10-29T13:40:42;11.02;;;6.13;;
18407;SDS011;9330;52.210;21.174;2022-10-29T13:43:37;14.70;;;6.85;;
18407;SDS011;9330;52.210;21.174;2022-10-29T13:49:12;7.50;;;5.00;;
18407;SDS011;9330;52.210;21.174;2022-10-29T13:51:46;6.55;;;4.93;;
18407;SDS011;9330;52.210;21.174;2022-10-29T13:54:23;9.65;;;4.85;;
18407;SDS011;9330;52.210;21.174;2022-10-29T13:56:57;8.85;;;4.35;;
18407;SDS011;9330;52.210;21.174;2022-10-29T13:59:29;8.52;;;5.00;;
18407;SDS011;9330;52.210;21.174;2022-10-29T14:02:13;9.25;;;4.28;;
18407;SDS011;9330;52.210;21.174;2022-10-29T14:04:49;10.25;;;4.32;;
18407;SDS011;9330;52.210;21.174;2022-10-29T14:07:20;8.35;;;4.60;;
18407;SDS011;9330;52.210;21.174;2022-10-29T14:09:55;8.25;;;4.18;;
18407;SDS011;9330;52.210;21.174;2022-10-29T14:12:28;8.50;;;4.97;;
18407;SDS011;9330;52.210;21.174;2022-10-29T14:14:57;8.73;;;5.40;;
18407;SDS011;9330;52.210;21.174;2022-10-29T14:17:29;8.95;;;4.80;;
18407;SDS011;9330;52.210;21.174;2022-10-29T14:19:56;9.00;;;4.75;;
18407;SDS011;9330;52.210;21.174;2022-10-29T14:25:26;9.07;;;5.32;;
18407;SDS011;9330;52.210;21.174;2022-10-29T14:28:08;7.57;;;4.55;;
18407;SDS011;9330;52.210;21.174;2022-10-29T14:30:47;9.55;;;5.07;;
18407;SDS011;9330;52.210;21.174;2022-10-29T14:33:24;10.27;;;5.72;;
18407;SDS011;9330;52.210;21.174;2022-10-29T14:35:54;8.40;;;5.28;;
18407;SDS011;9330;52.210;21.174;2022-10-29T14:38:30;8.00;;;5.97;;
18407;SDS011;9330;52.210;21.174;2022-10-29T14:41:03;8.38;;;6.38;;
18407;SDS011;9330;52.210;21.174;2022-10-29T14:43:30;8.38;;;5.60;;
18407;SDS011;9330;52.210;21.174;2022-10-29T14:46:07;9.27;;;6.05;;
18407;SDS011;9330;52.210;21.174;2022-10-29T14:49:08;10.52;;;5.50;;
18407;SDS011;9330;52.210;21.174;2022-10-29T14:51:39;11.38;;;6.22;;
18407;SDS011;9330;52.210;21.174;2022-10-29T14:54:14;8.68;;;6.18;;
18407;SDS011;9330;52.210;21.174;2022-10-29T14:56:46;10.48;;;6.53;;
18407;SDS011;9330;52.210;21.174;2022-10-29T14:59:17;9.68;;;6.03;;
18407;SDS011;9330;52.210;21.174;2022-10-29T15:01:48;8.88;;;6.28;;
18407;SDS011;9330;52.210;21.174;2022-10-29T15:04:17;7.60;;;5.88;;
18407;SDS011;9330;52.210;21.174;2022-10-29T15:06:45;8.77;;;5.82;;
18407;SDS011;9330;52.210;21.174;2022-10-29T15:09:14;8.38;;;5.80;;
18407;SDS011;9330;52.210;21.174;2022-10-29T15:11:58;10.52;;;6.25;;
18407;SDS011;9330;52.210;21.174;2022-10-29T15:14:32;12.60;;;5.82;;
18407;SDS011;9330;52.210;21.174;2022-10-29T15:17:06;9.52;;;5.60;;
18407;SDS011;9330;52.210;21.174;2022-10-29T15:19:35;10.48;;;6.55;;
18407;SDS011;9330;52.210;21.174;2022-10-29T15:22:07;12.40;;;7.07;;
18407;SDS011;9330;52.210;21.174;2022-10-29T15:24:34;10.77;;;6.00;;
18407;SDS011;9330;52.210;21.174;2022-10-29T15:27:03;10.65;;;6.70;;
18407;SDS011;9330;52.210;21.174;2022-10-29T15:29:32;9.98;;;6.95;;
18407;SDS011;9330;52.210;21.174;2022-10-29T15:32:03;12.05;;;6.80;;
18407;SDS011;9330;52.210;21.174;2022-10-29T15:34:31;10.90;;;7.28;;
18407;SDS011;9330;52.210;21.174;2022-10-29T15:37:12;10.20;;;7.22;;
18407;SDS011;9330;52.210;21.174;2022-10-29T15:40:03;12.05;;;6.93;;
18407;SDS011;9330;52.210;21.174;2022-10-29T15:42:35;15.15;;;7.68;;
18407;SDS011;9330;52.210;21.174;2022-10-29T15:45:09;10.82;;;7.35;;